Time;durP1;ratioP1;P1;durP2;ratioP2;P2;SDS_P1;SDS_P2;PMS_P1;PMS_P2;Temp;Humidity;BMP_temperature;BMP_pressure;BME280_temperature;BME280_humidity;BME280_pressure;Samples;Min_cycle;Max_cycle;Signal;HPM_P1;HPM_P2
2022/11/30 00:00:21;;;;;;;39.30;23.02;;;4.20;99.90;;;;;;5059990;28;20473;-80
2022/11/30 00:02:52;;;;;;;48.47;31.40;;;4.10;99.90;;;;;;5068064;28;20109;-80
2022/11/30 00:05:19;;;;;;;88.30;59.38;;;3.90;99.90;;;;;;5076662;28;20027;-80
2022/11/30 00:07:46;;;;;;;65.05;44.90;;;3.70;99.90;;;;;;5069735;28;20037;-80
2022/11/30 00:10:12;;;;;;;48.80;35.47;;;3.70;99.90;;;;;;5071574;28;20556;-80
2022/11/30 00:12:41;;;;;;;41.33;26.65;;;3.60;99.90;;;;;;5077074;28;20035;-79
2022/11/30 00:15:11;;;;;;;35.15;23.05;;;3.60;99.90;;;;;;5068306;28;20021;-79
2022/11/30 00:17:36;;;;;;;26.52;17.20;;;3.60;99.90;;;;;;5069027;28;20036;-80
2022/11/30 00:20:03;;;;;;;27.40;16.92;;;3.50;99.90;;;;;;5076452;28;20025;-80
2022/11/30 00:22:28;;;;;;;22.08;14.73;;;3.50;99.90;;;;;;5075862;28;20052;-80
2022/11/30 00:24:54;;;;;;;25.17;15.00;;;3.50;99.90;;;;;;5073630;28;20041;-79
2022/11/30 00:27:20;;;;;;;28.25;15.60;;;3.60;99.90;;;;;;5067099;28;20099;-79
2022/11/30 00:29:46;;;;;;;28.77;16.67;;;3.70;99.90;;;;;;5077126;28;20457;-79
2022/11/30 00:32:11;;;;;;;39.58;22.77;;;3.80;99.90;;;;;;5073328;28;20404;-79
2022/11/30 00:34:37;;;;;;;28.65;17.88;;;3.70;99.90;;;;;;5070519;28;20107;-79
2022/11/30 00:37:03;;;;;;;29.65;19.42;;;3.60;99.90;;;;;;5071865;28;20036;-79
2022/11/30 00:39:29;;;;;;;60.72;40.20;;;3.60;99.90;;;;;;5055432;28;20021;-80
2022/11/30 00:41:54;;;;;;;32.38;22.15;;;3.50;99.90;;;;;;5060335;28;20025;-79
2022/11/30 00:44:20;;;;;;;34.50;19.92;;;3.50;99.90;;;;;;5071811;28;20433;-80
2022/11/30 00:46:46;;;;;;;30.98;19.70;;;3.50;99.90;;;;;;5063929;28;20021;-80
2022/11/30 00:49:12;;;;;;;33.30;20.67;;;3.40;99.90;;;;;;5069282;28;20032;-79
2022/11/30 00:51:38;;;;;;;29.65;17.02;;;3.40;99.90;;;;;;5074925;28;20025;-80
2022/11/30 00:54:03;;;;;;;46.03;31.92;;;3.30;99.90;;;;;;5075587;28;20049;-79
2022/11/30 00:56:29;;;;;;;43.70;30.45;;;3.30;99.90;;;;;;5068074;28;20037;-79
2022/11/30 00:58:55;;;;;;;39.42;25.73;;;3.30;99.90;;;;;;5073350;28;20031;-79
2022/11/30 01:01:21;;;;;;;47.20;27.85;;;3.20;99.90;;;;;;5072938;28;20020;-79
2022/11/30 01:03:47;;;;;;;39.47;24.40;;;3.20;99.90;;;;;;5075588;28;20107;-79
2022/11/30 01:06:13;;;;;;;48.30;27.20;;;3.30;99.90;;;;;;5075516;28;20443;-79
2022/11/30 01:08:39;;;;;;;37.42;23.58;;;3.40;99.90;;;;;;5072281;28;20077;-79
2022/11/30 01:11:14;;;;;;;37.72;21.48;;;3.30;99.90;;;;;;5072268;28;20063;-79
2022/11/30 01:13:40;;;;;;;33.78;20.23;;;3.30;99.90;;;;;;5072773;28;20408;-79
2022/11/30 01:16:14;;;;;;;26.50;17.40;;;3.40;99.90;;;;;;5063345;28;20025;-79
2022/11/30 01:18:40;;;;;;;28.58;18.67;;;3.40;99.90;;;;;;5073737;28;20035;-79
2022/11/30 01:21:12;;;;;;;40.92;19.42;;;3.50;99.90;;;;;;5075611;28;20024;-79
2022/11/30 01:23:39;;;;;;;36.00;25.35;;;3.50;99.90;;;;;;5073082;28;20024;-79
2022/11/30 01:26:05;;;;;;;48.92;29.05;;;3.40;99.90;;;;;;5074879;28;20544;-79
2022/11/30 01:28:31;;;;;;;41.58;30.50;;;3.40;99.90;;;;;;5067404;28;20638;-80
2022/11/30 01:31:09;;;;;;;53.47;33.05;;;3.40;99.90;;;;;;5069445;28;20021;-80
2022/11/30 01:33:35;;;;;;;53.67;37.33;;;3.40;99.90;;;;;;5068879;28;20031;-80
2022/11/30 01:36:02;;;;;;;62.15;38.17;;;3.30;99.90;;;;;;5073096;28;20051;-79
2022/11/30 01:38:40;;;;;;;62.40;40.60;;;3.20;99.90;;;;;;5073510;28;21017;-80
2022/11/30 01:41:07;;;;;;;64.45;42.88;;;3.20;99.90;;;;;;5070990;28;20021;-79
2022/11/30 01:43:49;;;;;;;57.13;39.95;;;3.20;99.90;;;;;;5075441;28;20078;-79
2022/11/30 01:46:35;;;;;;;57.33;38.08;;;3.20;99.90;;;;;;5069138;28;20027;-79
2022/11/30 01:49:10;;;;;;;56.88;38.95;;;3.20;99.90;;;;;;5084515;28;20075;-79
2022/11/30 01:51:36;;;;;;;86.18;59.65;;;3.20;99.90;;;;;;5059814;28;20028;-79
2022/11/30 01:54:06;;;;;;;50.20;32.60;;;3.30;99.90;;;;;;5074700;28;20020;-79
2022/11/30 01:56:33;;;;;;;40.00;30.00;;;3.30;99.90;;;;;;5074357;28;20054;-79
2022/11/30 01:58:59;;;;;;;38.03;27.25;;;3.20;99.90;;;;;;5074793;28;20097;-79
2022/11/30 02:01:25;;;;;;;36.63;27.35;;;3.20;99.90;;;;;;5072304;28;20021;-79
2022/11/30 02:03:59;;;;;;;74.15;52.88;;;3.20;99.90;;;;;;5073161;28;20111;-79
2022/11/30 02:06:25;;;;;;;49.60;38.65;;;3.20;99.90;;;;;;5073059;28;20089;-79
2022/11/30 02:08:52;;;;;;;40.63;25.90;;;3.30;99.90;;;;;;5075366;28;20055;-80
2022/11/30 02:11:18;;;;;;;36.13;23.45;;;3.30;99.90;;;;;;5075191;28;20036;-79
2022/11/30 02:14:07;;;;;;;36.17;26.55;;;3.30;99.90;;;;;;5076742;28;20035;-79
2022/11/30 02:16:48;;;;;;;125.03;84.95;;;3.40;99.90;;;;;;5060600;28;20173;-79
2022/11/30 02:19:47;;;;;;;60.35;46.03;;;3.50;99.90;;;;;;5076376;28;20024;-79
2022/11/30 02:22:28;;;;;;;44.35;30.85;;;3.50;99.90;;;;;;5064639;28;20144;-79
2022/11/30 02:25:12;;;;;;;27.00;23.00;;;3.60;99.90;;;;;;5075381;28;20564;-79
2022/11/30 02:27:48;;;;;;;33.92;23.63;;;3.70;99.90;;;;;;5077654;28;20054;-78
2022/11/30 02:30:17;;;;;;;29.45;23.83;;;3.70;99.90;;;;;;5067966;28;20029;-79
2022/11/30 02:33:00;;;;;;;28.85;23.13;;;3.70;99.90;;;;;;5069979;28;20706;-78
2022/11/30 02:35:32;;;;;;;54.15;36.88;;;3.80;99.90;;;;;;5065746;28;20027;-79
2022/11/30 02:38:01;;;;;;;30.70;22.35;;;3.80;99.90;;;;;;5067885;28;20040;-80
2022/11/30 02:40:27;;;;;;;31.05;24.00;;;3.90;99.90;;;;;;5063092;28;20086;-79
2022/11/30 02:42:56;;;;;;;37.40;25.08;;;4.10;99.90;;;;;;5072927;28;20100;-79
2022/11/30 02:45:49;;;;;;;32.55;20.95;;;4.10;99.90;;;;;;5068797;28;20029;-79
2022/11/30 02:48:19;;;;;;;35.75;20.65;;;4.20;99.90;;;;;;5075342;28;20036;-79
2022/11/30 02:50:51;;;;;;;31.08;23.88;;;4.30;99.90;;;;;;5060549;28;20013;-79
2022/11/30 02:53:18;;;;;;;34.13;22.95;;;4.40;99.90;;;;;;5075749;28;20037;-79
2022/11/30 02:55:44;;;;;;;33.55;22.15;;;4.50;99.90;;;;;;5075724;28;20017;-79
2022/11/30 02:58:11;;;;;;;35.38;25.58;;;4.50;99.90;;;;;;5071054;28;20036;-79
2022/11/30 03:00:37;;;;;;;50.47;31.17;;;4.60;99.90;;;;;;5074474;28;20021;-80
2022/11/30 03:03:03;;;;;;;40.05;28.13;;;4.60;99.90;;;;;;5070454;28;20497;-79
2022/11/30 03:05:29;;;;;;;38.55;21.45;;;4.70;99.90;;;;;;5078686;28;20020;-79
2022/11/30 03:07:54;;;;;;;26.73;20.08;;;4.70;99.90;;;;;;5078124;28;20460;-79
2022/11/30 03:10:20;;;;;;;28.67;21.05;;;4.80;99.90;;;;;;5070958;28;20021;-79
2022/11/30 03:12:46;;;;;;;32.25;20.67;;;4.80;99.90;;;;;;5078264;28;20408;-79
2022/11/30 03:15:12;;;;;;;53.47;36.63;;;4.80;99.90;;;;;;5068937;28;20028;-79
2022/11/30 03:17:37;;;;;;;40.05;22.55;;;4.90;99.90;;;;;;5068958;28;20040;-79
2022/11/30 03:20:04;;;;;;;28.85;20.42;;;4.80;99.90;;;;;;5078706;28;20013;-79
2022/11/30 03:22:30;;;;;;;27.83;21.92;;;4.80;99.90;;;;;;5076352;28;20035;-79
2022/11/30 03:24:55;;;;;;;49.90;33.10;;;4.80;99.90;;;;;;5075226;28;20119;-79
2022/11/30 03:27:21;;;;;;;47.00;31.05;;;4.80;99.90;;;;;;5075083;28;20033;-79
2022/11/30 03:29:47;;;;;;;42.35;29.95;;;4.70;99.90;;;;;;5077259;28;20435;-80
2022/11/30 03:32:13;;;;;;;27.02;20.48;;;4.70;99.90;;;;;;5078028;28;20035;-79
2022/11/30 03:34:39;;;;;;;32.78;21.17;;;4.80;99.90;;;;;;5078234;28;20392;-79
2022/11/30 03:37:05;;;;;;;71.18;39.95;;;4.80;99.90;;;;;;5072874;28;20060;-78
2022/11/30 03:39:30;;;;;;;254.25;127.60;;;4.80;99.90;;;;;;5077937;28;20031;-78
2022/11/30 03:41:56;;;;;;;62.65;34.92;;;4.80;99.90;;;;;;5071444;28;20074;-81
2022/11/30 03:44:22;;;;;;;36.13;24.75;;;4.90;99.90;;;;;;5072558;28;20025;-79
2022/11/30 03:46:48;;;;;;;41.10;24.02;;;4.80;99.90;;;;;;5064727;28;20028;-81
2022/11/30 03:49:14;;;;;;;53.60;28.30;;;4.90;99.90;;;;;;5069345;28;20024;-81
2022/11/30 03:51:39;;;;;;;35.92;22.88;;;4.90;99.90;;;;;;5068720;28;20043;-81
2022/11/30 03:54:05;;;;;;;75.38;50.03;;;4.90;99.90;;;;;;5076523;28;20039;-81
2022/11/30 03:56:31;;;;;;;40.92;24.88;;;4.90;99.90;;;;;;5075877;28;20031;-81
2022/11/30 03:58:57;;;;;;;48.42;24.58;;;4.90;99.90;;;;;;5076314;28;20028;-81
2022/11/30 04:01:23;;;;;;;40.53;23.42;;;5.00;99.90;;;;;;5073790;28;20435;-81
2022/11/30 04:03:51;;;;;;;42.65;22.77;;;5.00;99.90;;;;;;5075956;28;20103;-81
2022/11/30 04:06:18;;;;;;;47.58;23.42;;;4.90;99.90;;;;;;5075321;28;20043;-79
2022/11/30 04:08:44;;;;;;;50.67;24.48;;;5.00;99.90;;;;;;5074892;28;20025;-78
2022/11/30 04:11:10;;;;;;;61.28;24.98;;;5.00;99.90;;;;;;5073311;28;20141;-78
2022/11/30 04:13:37;;;;;;;58.67;23.83;;;5.00;99.90;;;;;;5074089;28;20043;-81
2022/11/30 04:16:04;;;;;;;55.72;24.27;;;5.00;99.90;;;;;;5064839;28;20040;-81
2022/11/30 04:18:32;;;;;;;56.45;26.67;;;4.90;99.90;;;;;;5075597;28;20028;-81
2022/11/30 04:20:59;;;;;;;66.38;27.85;;;5.00;99.90;;;;;;5077771;28;20028;-81
2022/11/30 04:23:28;;;;;;;64.57;27.85;;;5.00;99.90;;;;;;5075107;28;20492;-81
2022/11/30 04:25:54;;;;;;;55.05;25.48;;;5.00;99.90;;;;;;5072518;28;20052;-81
2022/11/30 04:28:19;;;;;;;62.85;26.13;;;5.00;99.90;;;;;;5067288;28;20392;-81
2022/11/30 04:30:46;;;;;;;73.72;28.00;;;5.10;99.90;;;;;;5064992;28;20029;-81
2022/11/30 04:33:13;;;;;;;58.10;24.60;;;5.10;99.90;;;;;;5064899;28;20033;-79
2022/11/30 04:35:47;;;;;;;63.28;27.25;;;5.00;99.90;;;;;;5062447;28;20055;-79
2022/11/30 04:38:13;;;;;;;73.63;29.80;;;5.10;99.90;;;;;;5073117;28;20025;-79
2022/11/30 04:40:41;;;;;;;50.97;25.13;;;5.10;99.90;;;;;;5075684;28;20023;-78
2022/11/30 04:43:07;;;;;;;67.07;26.50;;;5.10;99.90;;;;;;5072364;28;20028;-79
2022/11/30 04:45:32;;;;;;;64.47;28.00;;;5.00;99.90;;;;;;5064787;28;20044;-80
2022/11/30 04:47:58;;;;;;;56.58;25.83;;;5.10;99.90;;;;;;5067770;28;20103;-80
2022/11/30 04:50:24;;;;;;;54.83;26.42;;;5.10;99.90;;;;;;5060743;28;20524;-79
2022/11/30 04:52:50;;;;;;;49.63;28.08;;;5.10;99.90;;;;;;5061100;28;20071;-79
2022/11/30 04:55:18;;;;;;;54.38;24.75;;;5.20;99.90;;;;;;5071861;28;20382;-79
2022/11/30 04:57:45;;;;;;;54.10;24.98;;;5.20;99.90;;;;;;5068479;28;20107;-79
2022/11/30 05:00:12;;;;;;;59.30;26.70;;;5.20;99.90;;;;;;5074787;28;20024;-79
2022/11/30 05:02:38;;;;;;;55.47;25.60;;;5.30;99.90;;;;;;5063478;28;20049;-79
2022/11/30 05:05:05;;;;;;;68.13;27.52;;;5.30;99.90;;;;;;5075341;28;20027;-79
2022/11/30 05:07:30;;;;;;;64.68;27.35;;;5.30;99.90;;;;;;5076134;28;20036;-80
2022/11/30 05:09:56;;;;;;;72.95;27.73;;;5.30;99.90;;;;;;5072262;28;20024;-79
2022/11/30 05:12:22;;;;;;;65.80;28.33;;;5.30;99.90;;;;;;5074149;28;20036;-79
2022/11/30 05:14:48;;;;;;;82.97;28.45;;;5.30;99.90;;;;;;5071250;28;20348;-80
2022/11/30 05:17:14;;;;;;;78.55;27.45;;;5.30;99.90;;;;;;5064526;28;20415;-79
2022/11/30 05:19:39;;;;;;;72.05;28.65;;;5.30;99.90;;;;;;5076017;28;20083;-78
2022/11/30 05:22:05;;;;;;;63.85;26.15;;;5.30;99.90;;;;;;5063643;28;20056;-78
2022/11/30 05:24:31;;;;;;;72.65;27.25;;;5.30;99.90;;;;;;5062534;28;20033;-79
2022/11/30 05:26:57;;;;;;;37.45;19.02;;;5.40;99.90;;;;;;5064146;28;20017;-78
2022/11/30 05:29:23;;;;;;;31.90;16.15;;;5.40;99.90;;;;;;5061847;28;20072;-78
2022/11/30 05:31:49;;;;;;;23.90;14.20;;;5.40;99.90;;;;;;5073470;28;20032;-78
2022/11/30 05:34:15;;;;;;;32.67;15.23;;;5.40;99.90;;;;;;5074221;28;20028;-78
2022/11/30 05:36:40;;;;;;;26.83;14.75;;;5.40;99.90;;;;;;5065461;28;20059;-78
2022/11/30 05:39:06;;;;;;;33.60;16.27;;;5.40;99.90;;;;;;5072443;28;20025;-78
2022/11/30 05:41:32;;;;;;;30.20;14.45;;;5.40;99.90;;;;;;5062343;28;20017;-79
2022/11/30 05:43:58;;;;;;;23.70;13.13;;;5.50;99.90;;;;;;5062002;28;20385;-79
2022/11/30 05:46:24;;;;;;;18.50;12.40;;;5.50;99.90;;;;;;5065979;28;20036;-79
2022/11/30 05:48:50;;;;;;;18.02;12.85;;;5.40;99.90;;;;;;5075356;28;20013;-78
2022/11/30 05:51:17;;;;;;;17.88;11.68;;;5.40;99.90;;;;;;5074921;28;20059;-79
2022/11/30 05:53:44;;;;;;;16.48;12.30;;;5.40;99.90;;;;;;5073360;28;20021;-78
2022/11/30 05:56:16;;;;;;;19.40;11.75;;;5.30;99.90;;;;;;5077202;28;20381;-79
2022/11/30 05:58:42;;;;;;;14.90;11.55;;;5.30;99.90;;;;;;5069700;28;20032;-79
2022/11/30 06:01:15;;;;;;;19.20;12.10;;;5.30;99.90;;;;;;5062044;28;20021;-79
2022/11/30 06:03:41;;;;;;;21.50;11.65;;;5.20;99.90;;;;;;5065873;28;20021;-79
2022/11/30 06:06:07;;;;;;;18.08;10.90;;;5.20;99.90;;;;;;5065791;28;20039;-79
2022/11/30 06:08:33;;;;;;;19.75;10.25;;;5.10;99.90;;;;;;5069161;28;20021;-79
2022/11/30 06:11:02;;;;;;;16.80;11.52;;;5.10;99.90;;;;;;5073701;28;20485;-79
2022/11/30 06:13:28;;;;;;;16.50;10.38;;;5.10;99.90;;;;;;5076175;28;20047;-80
2022/11/30 06:15:57;;;;;;;22.17;10.90;;;5.10;99.90;;;;;;5064049;28;20119;-79
2022/11/30 06:18:22;;;;;;;14.25;10.77;;;5.10;99.90;;;;;;5077868;28;20120;-80
2022/11/30 06:20:48;;;;;;;16.58;11.55;;;5.10;99.90;;;;;;5078354;28;20056;-80
2022/11/30 06:23:14;;;;;;;16.95;10.98;;;5.10;99.90;;;;;;5078884;28;20036;-80
2022/11/30 06:25:40;;;;;;;14.70;10.95;;;5.10;99.90;;;;;;5078949;28;20044;-79
2022/11/30 06:28:09;;;;;;;19.08;10.93;;;5.10;99.90;;;;;;5070117;28;20531;-80
2022/11/30 06:30:35;;;;;;;13.27;9.43;;;5.10;99.90;;;;;;5068245;28;20072;-79
2022/11/30 06:33:00;;;;;;;12.65;9.73;;;5.10;99.90;;;;;;5069298;28;20021;-79
2022/11/30 06:35:26;;;;;;;13.88;9.82;;;5.00;99.90;;;;;;5065003;28;20431;-80
2022/11/30 06:37:53;;;;;;;13.70;9.35;;;5.00;99.90;;;;;;5077371;28;20032;-79
2022/11/30 06:40:19;;;;;;;13.00;9.93;;;5.00;99.90;;;;;;5065710;28;20025;-79
2022/11/30 06:42:45;;;;;;;16.13;11.70;;;5.00;99.90;;;;;;5077581;28;20020;-80
2022/11/30 06:45:11;;;;;;;520.28;347.23;;;5.00;99.90;;;;;;5078136;28;20035;-79
2022/11/30 06:47:37;;;;;;;28.25;18.90;;;5.10;99.90;;;;;;5076099;28;20028;-79
2022/11/30 06:50:03;;;;;;;16.13;11.57;;;5.10;99.90;;;;;;5075531;28;20025;-79
2022/11/30 06:52:32;;;;;;;18.13;10.88;;;5.10;99.90;;;;;;5073892;28;20027;-79
2022/11/30 06:54:58;;;;;;;15.93;11.85;;;5.00;99.90;;;;;;5071437;28;20016;-79
2022/11/30 06:57:27;;;;;;;21.88;12.77;;;5.00;99.90;;;;;;5077484;28;20031;-85
2022/11/30 06:59:53;;;;;;;18.05;10.95;;;5.00;99.90;;;;;;5062705;28;20029;-82
2022/11/30 07:02:19;;;;;;;14.00;10.93;;;5.00;99.90;;;;;;5072681;28;20021;-81
2022/11/30 07:04:45;;;;;;;12.77;10.18;;;4.90;99.90;;;;;;5078785;28;20031;-81
2022/11/30 07:07:11;;;;;;;12.13;10.82;;;4.90;99.90;;;;;;5078230;28;20078;-81
2022/11/30 07:09:37;;;;;;;11.57;10.18;;;4.90;99.90;;;;;;5074714;28;20035;-81
2022/11/30 07:12:03;;;;;;;12.23;9.68;;;5.00;99.90;;;;;;5073533;28;20032;-81
2022/11/30 07:14:29;;;;;;;13.32;9.73;;;4.90;99.90;;;;;;5074081;28;20463;-81
2022/11/30 07:16:56;;;;;;;12.75;9.30;;;4.90;99.90;;;;;;5077104;28;20404;-80
2022/11/30 07:19:23;;;;;;;14.35;10.02;;;4.90;99.90;;;;;;5073093;28;20112;-81
2022/11/30 07:21:48;;;;;;;19.27;10.88;;;4.90;99.90;;;;;;5075320;28;20485;-81
2022/11/30 07:27:01;;;;;;;13.48;9.43;;;4.90;99.90;;;;;;5065171;28;20055;-81
2022/11/30 07:29:27;;;;;;;13.40;9.73;;;4.90;99.90;;;;;;5063297;28;20036;-81
2022/11/30 07:31:53;;;;;;;13.30;10.65;;;4.90;99.90;;;;;;5070422;28;20025;-81
2022/11/30 07:34:20;;;;;;;19.08;11.10;;;4.90;99.90;;;;;;5075658;28;20023;-82
2022/11/30 07:36:46;;;;;;;17.48;11.65;;;4.90;99.90;;;;;;5062413;28;20028;-81
2022/11/30 07:39:12;;;;;;;31.40;17.63;;;4.90;99.90;;;;;;5073359;28;20393;-82
2022/11/30 07:41:39;;;;;;;68.00;42.97;;;5.00;99.90;;;;;;5062997;28;20480;-82
2022/11/30 07:44:07;;;;;;;46.47;29.15;;;5.10;99.90;;;;;;5076203;28;20032;-80
2022/11/30 07:46:34;;;;;;;20.98;15.38;;;5.00;99.90;;;;;;5072707;28;20434;-80
2022/11/30 07:49:01;;;;;;;20.42;13.27;;;5.10;99.90;;;;;;5077939;28;20017;-80
2022/11/30 07:51:27;;;;;;;16.48;11.27;;;5.10;99.90;;;;;;5076309;28;20504;-80
2022/11/30 07:53:55;;;;;;;13.98;10.85;;;5.10;99.90;;;;;;5077499;28;20082;-81
2022/11/30 07:56:22;;;;;;;16.83;12.55;;;5.10;99.90;;;;;;5066723;28;20532;-82
2022/11/30 07:58:53;;;;;;;14.18;10.80;;;5.10;99.90;;;;;;5067559;28;20052;-81
2022/11/30 08:01:22;;;;;;;15.88;11.38;;;5.10;99.90;;;;;;5061033;28;20036;-81
2022/11/30 08:03:49;;;;;;;18.05;11.88;;;5.10;99.90;;;;;;5062550;28;20009;-81
2022/11/30 08:06:18;;;;;;;19.17;12.50;;;5.10;99.90;;;;;;5065721;28;20473;-80
2022/11/30 08:08:45;;;;;;;16.27;12.68;;;5.10;99.90;;;;;;5070840;28;20028;-81
2022/11/30 08:11:13;;;;;;;19.92;13.23;;;5.10;99.90;;;;;;5071261;28;20032;-81
2022/11/30 08:13:40;;;;;;;19.77;14.02;;;5.20;99.90;;;;;;5077342;28;20025;-80
2022/11/30 08:16:18;;;;;;;20.55;14.05;;;5.20;99.90;;;;;;5064549;28;20029;-80
2022/11/30 08:18:43;;;;;;;21.90;13.30;;;5.20;99.90;;;;;;5067625;28;20032;-80
2022/11/30 08:21:12;;;;;;;18.67;13.20;;;5.20;99.90;;;;;;5060598;28;20420;-80
2022/11/30 08:23:40;;;;;;;16.42;13.27;;;5.30;99.90;;;;;;5074569;28;20060;-81
2022/11/30 08:26:14;;;;;;;16.27;12.95;;;5.20;99.90;;;;;;5068183;28;20194;-81
2022/11/30 08:28:41;;;;;;;16.90;12.65;;;5.20;99.90;;;;;;5068583;28;20021;-81
2022/11/30 08:31:09;;;;;;;22.52;14.60;;;5.30;99.90;;;;;;5061621;28;20033;-81
2022/11/30 08:33:36;;;;;;;16.58;12.55;;;5.30;99.90;;;;;;5066556;28;20049;-81
2022/11/30 08:36:06;;;;;;;18.15;12.63;;;5.40;99.90;;;;;;5066911;28;20035;-80
2022/11/30 08:38:32;;;;;;;14.85;12.73;;;5.30;99.90;;;;;;5064357;28;20016;-81
2022/11/30 08:40:58;;;;;;;17.05;13.15;;;5.30;99.90;;;;;;5068375;28;20044;-81
2022/11/30 08:43:24;;;;;;;19.38;13.50;;;5.30;99.90;;;;;;5076645;28;20044;-81
2022/11/30 08:45:50;;;;;;;21.70;13.85;;;5.40;99.90;;;;;;5072616;28;20064;-81
2022/11/30 08:48:15;;;;;;;17.38;13.07;;;5.40;99.90;;;;;;5069458;28;20403;-81
2022/11/30 08:50:41;;;;;;;14.70;11.98;;;5.40;99.90;;;;;;5065654;28;20047;-81
2022/11/30 08:53:07;;;;;;;21.13;13.85;;;5.40;99.90;;;;;;5072528;28;20849;-81
2022/11/30 08:55:33;;;;;;;17.83;12.93;;;5.50;99.90;;;;;;5071628;28;20055;-82
2022/11/30 08:57:58;;;;;;;18.92;12.77;;;5.50;99.90;;;;;;5070329;28;20115;-81
2022/11/30 09:00:24;;;;;;;20.30;14.02;;;5.50;99.90;;;;;;5072070;28;20021;-81
2022/11/30 09:02:50;;;;;;;18.58;11.95;;;5.50;99.90;;;;;;5069570;28;20502;-81
2022/11/30 09:05:16;;;;;;;19.25;13.23;;;5.50;99.90;;;;;;5070737;28;20473;-81
2022/11/30 09:07:42;;;;;;;18.98;12.93;;;5.50;99.90;;;;;;5065652;28;20499;-81
2022/11/30 09:10:08;;;;;;;19.58;11.80;;;5.50;99.90;;;;;;5075609;28;20031;-81
2022/11/30 09:12:36;;;;;;;13.77;11.43;;;5.50;99.90;;;;;;5074772;28;20468;-81
2022/11/30 09:15:02;;;;;;;17.48;12.02;;;5.60;99.90;;;;;;5072873;28;20025;-81
2022/11/30 09:17:27;;;;;;;18.10;12.30;;;5.60;99.90;;;;;;5070331;28;20021;-81
2022/11/30 09:19:53;;;;;;;12.90;11.55;;;5.60;99.90;;;;;;5065735;28;20025;-81
2022/11/30 09:22:19;;;;;;;14.25;11.25;;;5.70;99.90;;;;;;5066903;28;20028;-81
2022/11/30 09:24:45;;;;;;;15.80;11.48;;;5.50;99.90;;;;;;5075829;28;20745;-81
2022/11/30 09:27:11;;;;;;;50.97;27.50;;;5.60;99.90;;;;;;5074640;28;20074;-81
2022/11/30 09:29:37;;;;;;;141.45;65.47;;;5.70;99.90;;;;;;5072195;28;20048;-80
2022/11/30 09:32:02;;;;;;;18.95;12.68;;;5.70;99.90;;;;;;5062720;28;20547;-81
2022/11/30 09:34:28;;;;;;;16.35;11.70;;;5.80;99.90;;;;;;5064450;28;20033;-80
2022/11/30 09:36:54;;;;;;;14.02;11.20;;;5.90;99.90;;;;;;5067477;28;20032;-81
2022/11/30 09:39:20;;;;;;;43.83;26.10;;;5.80;99.90;;;;;;5061040;28;20018;-81
2022/11/30 09:42:07;;;;;;;16.25;11.30;;;6.00;99.90;;;;;;5063486;28;20028;-80
2022/11/30 09:44:49;;;;;;;17.30;11.30;;;6.00;99.90;;;;;;5070319;28;20043;-78
2022/11/30 09:47:33;;;;;;;12.98;9.95;;;6.00;99.90;;;;;;5070806;28;20082;-80
2022/11/30 09:50:10;;;;;;;18.02;13.15;;;6.00;99.90;;;;;;5068060;28;20024;-80
2022/11/30 09:52:40;;;;;;;18.02;11.98;;;6.00;99.90;;;;;;5069958;28;20036;-81
2022/11/30 09:55:13;;;;;;;20.67;14.15;;;6.00;99.90;;;;;;5069962;28;20485;-80
2022/11/30 09:57:39;;;;;;;36.40;18.80;;;6.00;99.90;;;;;;5074049;28;20032;-81
2022/11/30 10:00:18;;;;;;;15.95;12.18;;;6.00;99.90;;;;;;5061576;28;20116;-82
2022/11/30 10:02:44;;;;;;;27.35;15.55;;;6.00;99.90;;;;;;5068613;28;20025;-80
2022/11/30 10:05:34;;;;;;;157.25;75.10;;;6.10;99.90;;;;;;5069488;28;20025;-81
2022/11/30 10:08:15;;;;;;;28.25;16.90;;;6.20;99.90;;;;;;5066708;28;20044;-81
2022/11/30 10:10:43;;;;;;;15.57;11.45;;;6.30;99.90;;;;;;5071621;28;20024;-82
2022/11/30 10:13:18;;;;;;;16.23;11.75;;;6.30;99.90;;;;;;5064835;28;20036;-82
2022/11/30 10:16:03;;;;;;;15.18;12.77;;;6.30;99.90;;;;;;5073001;28;20175;-82
2022/11/30 10:18:45;;;;;;;92.18;58.97;;;6.10;99.90;;;;;;5064813;28;20039;-82
2022/11/30 10:21:32;;;;;;;54.83;36.22;;;6.10;99.90;;;;;;5063334;28;20074;-81
2022/11/30 10:23:58;;;;;;;30.75;23.02;;;5.90;99.90;;;;;;5083836;28;20578;-81
2022/11/30 10:26:34;;;;;;;14.48;11.60;;;6.20;99.90;;;;;;5069691;28;20408;-82
2022/11/30 10:29:31;;;;;;;17.30;12.68;;;6.30;99.90;;;;;;5075870;28;20085;-81
2022/11/30 10:31:58;;;;;;;19.88;12.48;;;6.40;99.90;;;;;;5066954;28;20059;-82
2022/11/30 10:34:35;;;;;;;15.32;10.77;;;6.40;99.90;;;;;;5076745;28;20033;-82
2022/11/30 10:37:12;;;;;;;15.27;11.68;;;6.40;99.90;;;;;;5066782;28;20029;-82
2022/11/30 10:40:00;;;;;;;21.85;16.20;;;6.30;99.90;;;;;;5078800;28;20516;-82
2022/11/30 10:42:36;;;;;;;16.00;11.55;;;6.30;99.90;;;;;;5066098;28;20579;-82
2022/11/30 10:45:11;;;;;;;15.07;11.55;;;6.20;99.90;;;;;;5069689;28;20032;-82
2022/11/30 10:47:48;;;;;;;23.17;11.93;;;6.00;99.90;;;;;;5075744;28;20078;-83
2022/11/30 10:50:15;;;;;;;16.90;13.60;;;6.10;99.90;;;;;;5077675;28;20389;-85
2022/11/30 10:52:46;;;;;;;15.60;13.05;;;6.10;99.90;;;;;;5067593;28;20032;-81
2022/11/30 10:55:17;;;;;;;19.52;12.45;;;6.00;99.90;;;;;;5069758;28;20047;-81
2022/11/30 10:57:45;;;;;;;20.15;13.57;;;6.10;99.90;;;;;;5070882;28;20157;-81
2022/11/30 11:00:13;;;;;;;15.38;12.25;;;6.10;99.90;;;;;;5070310;28;20064;-81
2022/11/30 11:02:41;;;;;;;15.15;12.07;;;6.10;99.90;;;;;;5066936;28;20496;-81
2022/11/30 11:05:25;;;;;;;18.15;12.30;;;6.10;99.90;;;;;;5072443;28;20016;-80
2022/11/30 11:08:15;;;;;;;17.50;13.48;;;6.10;99.90;;;;;;5065609;28;20052;-81
2022/11/30 11:10:43;;;;;;;18.13;12.35;;;6.20;99.90;;;;;;5076029;28;20042;-81
2022/11/30 11:13:34;;;;;;;16.50;12.10;;;6.20;99.90;;;;;;5078306;28;20028;-81
2022/11/30 11:16:01;;;;;;;24.08;18.60;;;6.20;99.90;;;;;;5073384;28;20031;-80
2022/11/30 11:18:32;;;;;;;18.20;13.18;;;6.30;99.90;;;;;;5067833;28;20035;-80
2022/11/30 11:21:22;;;;;;;17.70;13.25;;;6.30;99.90;;;;;;5060630;28;20413;-80
2022/11/30 11:23:51;;;;;;;18.42;12.70;;;6.20;99.90;;;;;;5077831;28;20388;-80
2022/11/30 11:26:28;;;;;;;14.45;12.18;;;6.20;99.90;;;;;;5064461;28;20044;-80
2022/11/30 11:28:58;;;;;;;13.10;10.90;;;6.20;99.90;;;;;;5077335;28;20431;-81
2022/11/30 11:31:42;;;;;;;13.70;11.20;;;6.10;99.90;;;;;;5075502;28;20116;-81
2022/11/30 11:34:30;;;;;;;17.05;11.73;;;6.00;99.90;;;;;;5076083;28;20079;-81
2022/11/30 11:37:16;;;;;;;13.15;10.73;;;6.00;99.90;;;;;;5070723;28;20119;-83
2022/11/30 11:39:42;;;;;;;17.10;11.30;;;6.10;99.90;;;;;;5074245;28;20025;-81
2022/11/30 11:42:20;;;;;;;15.95;10.15;;;6.10;99.90;;;;;;5070695;28;20028;-81
2022/11/30 11:44:54;;;;;;;15.05;11.43;;;6.20;99.90;;;;;;5067292;28;20485;-82
2022/11/30 11:47:27;;;;;;;14.63;10.80;;;6.10;99.90;;;;;;5071439;28;20066;-81
2022/11/30 11:50:08;;;;;;;12.45;9.80;;;6.20;99.90;;;;;;5061840;28;20029;-81
2022/11/30 11:52:34;;;;;;;13.13;10.50;;;6.30;99.90;;;;;;5069189;28;20082;-81
2022/11/30 11:55:05;;;;;;;11.20;9.50;;;6.40;99.90;;;;;;5078269;28;20029;-81
2022/11/30 11:57:53;;;;;;;12.70;10.30;;;6.40;99.90;;;;;;5074117;28;20389;-80
2022/11/30 12:00:24;;;;;;;13.05;10.60;;;6.40;99.90;;;;;;5069952;28;20024;-80
2022/11/30 12:02:57;;;;;;;;;;;6.50;99.90;;;;;;5067862;28;20086;-80
2022/11/30 12:05:41;;;;;;;12.15;10.30;;;6.50;99.90;;;;;;5068391;28;19905;-79
2022/11/30 12:08:13;;;;;;;13.10;10.75;;;6.40;99.90;;;;;;5070041;28;20561;-80
2022/11/30 12:10:48;;;;;;;12.80;10.38;;;6.40;99.90;;;;;;5075336;28;20020;-80
2022/11/30 12:13:17;;;;;;;16.65;10.95;;;6.40;99.90;;;;;;5072895;28;20033;-80
2022/11/30 12:15:51;;;;;;;14.25;11.90;;;6.50;99.90;;;;;;5075193;28;20028;-80
2022/11/30 12:18:23;;;;;;;16.15;10.40;;;6.40;99.90;;;;;;5074917;28;20047;-79
2022/11/30 12:20:53;;;;;;;13.90;11.10;;;6.50;99.90;;;;;;5067401;28;20025;-79
2022/11/30 12:24:16;;;;;;;16.25;11.68;;;6.50;99.90;;;;;;5068412;28;20049;-80
2022/11/30 12:27:11;;;;;;;15.88;12.10;;;6.60;99.90;;;;;;5054913;28;20037;-80
2022/11/30 12:30:10;;;;;;;15.20;10.80;;;6.50;99.90;;;;;;5009514;28;20048;-78
2022/11/30 12:32:54;;;;;;;19.52;13.63;;;6.50;99.90;;;;;;5074618;28;20099;-79
2022/11/30 12:35:47;;;;;;;16.58;11.02;;;6.50;99.90;;;;;;5064799;28;20036;-78
2022/11/30 12:38:24;;;;;;;13.82;10.63;;;6.50;99.90;;;;;;5071854;28;20047;-79
2022/11/30 12:41:08;;;;;;;16.38;10.52;;;6.50;99.90;;;;;;5073659;28;20405;-80
2022/11/30 12:44:12;;;;;;;20.55;10.90;;;6.50;99.90;;;;;;5076521;28;20033;-80
2022/11/30 12:46:54;;;;;;;16.95;10.50;;;6.50;99.90;;;;;;5060993;28;20440;-80
2022/11/30 12:49:49;;;;;;;14.48;11.90;;;6.50;99.90;;;;;;5066686;28;20029;-79
2022/11/30 12:52:30;;;;;;;12.95;10.15;;;6.50;99.90;;;;;;5066030;28;20036;-79
2022/11/30 12:55:17;;;;;;;13.68;10.52;;;6.40;99.90;;;;;;5058434;28;20031;-79